createdAt,value
2022-11-22T00:03:30.805Z,71.23
2022-11-22T00:09:01.864Z,71.63
2022-11-22T00:14:33.068Z,71.17
2022-11-22T00:20:06.131Z,70.74
2022-11-22T00:25:37.023Z,70.83
2022-11-22T00:31:07.958Z,71.19
2022-11-22T00:36:39.286Z,71.25
2022-11-22T00:42:11.172Z,70.46
2022-11-22T00:47:42.274Z,70.26
2022-11-22T00:53:13.358Z,70.59
2022-11-22T00:58:44.623Z,70.27
2022-11-22T01:04:15.568Z,70.25
2022-11-22T01:09:46.614Z,70.25
2022-11-22T01:15:18.240Z,70.86
2022-11-22T01:20:49.447Z,70.59
2022-11-22T01:26:20.645Z,70.72
2022-11-22T01:31:51.727Z,70.48
2022-11-22T01:37:23.261Z,70.51
2022-11-22T01:42:59.933Z,70.69
2022-11-22T01:48:56.436Z,70.46
2022-11-22T01:54:30.531Z,70.31
2022-11-22T02:00:06.668Z,70.54
2022-11-22T02:05:37.977Z,69.89
2022-11-22T02:11:10.100Z,70.35
2022-11-22T02:16:42.160Z,70.31
2022-11-22T02:22:34.332Z,70.67
2022-11-22T02:28:05.655Z,70.02
2022-11-22T02:33:36.887Z,69.92
2022-11-22T02:39:10.191Z,70.50
2022-11-22T02:44:41.839Z,70.69
2022-11-22T02:50:12.954Z,70.08
2022-11-22T02:55:44.152Z,69.92
2022-11-22T03:01:15.410Z,69.88
2022-11-22T03:06:46.507Z,70.20
2022-11-22T03:12:17.818Z,69.69
2022-11-22T03:17:49.267Z,69.86
2022-11-22T03:23:20.177Z,70.03
2022-11-22T03:28:51.485Z,70.12
2022-11-22T03:34:22.615Z,70.36
2022-11-22T03:39:53.963Z,70.28
2022-11-22T03:45:25.170Z,69.94
2022-11-22T03:51:04.821Z,70.38
2022-11-22T03:56:35.970Z,70.63
2022-11-22T04:02:07.214Z,69.78
2022-11-22T04:07:38.525Z,70.30
2022-11-22T04:13:09.930Z,69.76
2022-11-22T04:18:41.180Z,70.05
2022-11-22T04:24:31.137Z,69.98
2022-11-22T04:30:02.805Z,70.53
2022-11-22T04:35:33.976Z,70.71
2022-11-22T04:41:04.923Z,70.28
2022-11-22T04:46:36.101Z,70.28
2022-11-22T04:52:26.257Z,70.58
2022-11-22T04:57:59.908Z,70.13
2022-11-22T05:03:31.258Z,71.06
2022-11-22T05:09:02.414Z,70.76
2022-11-22T05:14:33.708Z,70.62
2022-11-22T05:20:09.455Z,70.57
2022-11-22T05:25:42.132Z,70.69
2022-11-22T05:31:16.780Z,70.98
2022-11-22T05:36:47.756Z,71.01
2022-11-22T05:42:19.463Z,70.66
2022-11-22T05:47:50.433Z,71.28
2022-11-22T05:53:21.738Z,70.87
2022-11-22T05:58:53.645Z,71.01
2022-11-22T06:04:25.195Z,71.62
2022-11-22T06:09:56.344Z,70.95
2022-11-22T06:15:27.552Z,71.53
2022-11-22T06:21:04.218Z,71.28
2022-11-22T06:26:39.262Z,71.38
2022-11-22T06:32:10.707Z,71.25
2022-11-22T06:37:41.748Z,71.23
2022-11-22T06:43:12.968Z,71.52
2022-11-22T06:48:44.366Z,71.38
2022-11-22T06:54:15.631Z,71.53
2022-11-22T06:59:46.986Z,71.49
2022-11-22T07:05:25.714Z,71.08
2022-11-22T07:11:05.662Z,71.41
2022-11-22T07:16:37.968Z,71.05
2022-11-22T07:22:09.472Z,71.02
2022-11-22T07:27:40.414Z,71.81
2022-11-22T07:33:11.735Z,71.07
2022-11-22T07:38:43.197Z,71.06
2022-11-22T07:44:14.083Z,71.52
2022-11-22T07:49:45.487Z,71.08
2022-11-22T07:55:16.921Z,71.08
2022-11-22T08:00:47.977Z,71.88
2022-11-22T08:06:19.216Z,71.40
2022-11-22T08:11:50.413Z,71.79
2022-11-22T08:17:21.702Z,71.28
2022-11-22T08:22:53.099Z,71.33
2022-11-22T08:28:24.320Z,71.47
2022-11-22T08:33:55.429Z,71.75
2022-11-22T08:39:26.442Z,71.33
2022-11-22T08:44:57.765Z,71.76
2022-11-22T08:50:29.164Z,71.40
2022-11-22T08:56:01.534Z,71.39
2022-11-22T09:01:32.966Z,71.89
2022-11-22T09:12:56.831Z,71.75
2022-11-22T09:18:27.798Z,72.31
2022-11-22T09:23:59.060Z,71.93
2022-11-22T09:29:30.573Z,71.72
2022-11-22T09:35:01.708Z,71.78
2022-11-22T09:40:32.803Z,71.85
2022-11-22T09:46:23.251Z,72.03
2022-11-22T09:52:03.085Z,72.33
2022-11-22T09:57:38.981Z,72.05
2022-11-22T10:03:53.539Z,71.96
2022-11-22T10:09:33.923Z,71.97
2022-11-22T10:15:23.611Z,72.01
2022-11-22T10:20:54.410Z,72.39
2022-11-22T10:26:28.045Z,71.97
2022-11-22T10:32:11.585Z,72.35
2022-11-22T10:37:48.589Z,72.56
2022-11-22T10:43:37.418Z,71.89
2022-11-22T10:49:46.405Z,72.62
2022-11-22T10:55:25.886Z,72.41
2022-11-22T11:01:20.698Z,72.20
2022-11-22T11:07:11.470Z,72.26
2022-11-22T11:12:47.503Z,72.19
2022-11-22T11:18:23.001Z,72.40
2022-11-22T11:23:54.470Z,72.77
2022-11-22T11:29:37.690Z,71.98
2022-11-22T11:35:14.735Z,72.64
2022-11-22T11:40:45.838Z,72.13
2022-11-22T11:46:41.402Z,72.53
2022-11-22T11:52:19.687Z,72.25
2022-11-22T11:57:52.572Z,72.72
2022-11-22T12:03:25.570Z,72.41
2022-11-22T12:08:58.130Z,72.16
2022-11-22T12:14:48.814Z,72.72
2022-11-22T12:20:25.693Z,72.69
2022-11-22T12:25:57.095Z,72.38
2022-11-22T12:31:38.985Z,73.02
2022-11-22T12:37:17.265Z,72.54
2022-11-22T12:42:51.894Z,72.42
2022-11-22T12:48:34.959Z,72.87
2022-11-22T12:54:12.788Z,72.55
2022-11-22T12:59:45.143Z,72.31
2022-11-22T13:05:23.018Z,72.84
2022-11-22T13:11:03.869Z,72.41
2022-11-22T13:16:35.235Z,72.98
2022-11-22T13:22:43.778Z,72.67
2022-11-22T13:28:18.083Z,72.85
2022-11-22T13:33:55.118Z,72.20
2022-11-22T13:39:26.428Z,72.13
2022-11-22T13:44:57.513Z,72.79
2022-11-22T13:50:40.889Z,73.03
2022-11-22T13:56:20.726Z,72.43
2022-11-22T14:01:52.293Z,72.41
2022-11-22T14:07:33.999Z,73.07
2022-11-22T14:13:20.679Z,72.53
2022-11-22T14:19:07.663Z,72.37
2022-11-22T14:24:47.701Z,72.77
2022-11-22T14:30:23.554Z,73.25
2022-11-22T14:36:06.771Z,72.70
2022-11-22T14:41:37.729Z,73.18
2022-11-22T14:47:13.663Z,72.83
2022-11-22T14:52:47.116Z,73.02
2022-11-22T14:58:28.435Z,72.74
2022-11-22T15:09:12.288Z,72.69
2022-11-22T15:10:26.323Z,72.97
2022-11-22T15:57:54.825Z,72.82
2022-11-22T16:03:26.610Z,72.62
2022-11-22T16:09:02.927Z,73.25
2022-11-22T16:14:44.836Z,73.15
2022-11-22T16:20:26.670Z,73.00
2022-11-22T16:26:17.649Z,72.77
2022-11-22T16:31:48.846Z,73.20
2022-11-22T16:37:37.789Z,73.26
2022-11-22T16:43:18.132Z,73.00
2022-11-22T16:48:49.572Z,72.95
2022-11-22T16:54:21.206Z,73.02
2022-11-22T16:59:54.566Z,73.31
2022-11-22T17:05:25.397Z,72.57
2022-11-22T17:10:56.576Z,72.84
2022-11-22T17:16:27.897Z,73.58
2022-11-22T17:22:00.967Z,73.20
2022-11-22T17:27:32.471Z,72.68
2022-11-22T17:33:03.456Z,73.22
2022-11-22T17:38:34.497Z,73.11
2022-11-22T17:44:05.938Z,73.38
2022-11-22T17:49:36.942Z,73.11
2022-11-22T17:55:13.070Z,73.00
2022-11-22T18:00:45.782Z,72.82
2022-11-22T18:06:18.306Z,72.80
2022-11-22T18:11:49.452Z,73.30
2022-11-22T18:17:21.388Z,73.11
2022-11-22T18:22:52.465Z,73.59
2022-11-22T18:28:23.690Z,72.97
2022-11-22T18:33:54.886Z,72.70
2022-11-22T18:39:26.174Z,72.84
2022-11-22T18:44:57.139Z,73.47
2022-11-22T18:50:28.548Z,73.53
2022-11-22T18:56:04.476Z,73.62
2022-11-22T19:01:38.246Z,73.33
2022-11-22T19:07:10.166Z,72.83
2022-11-22T19:12:41.431Z,72.66
2022-11-22T19:18:13.447Z,73.35
2022-11-22T19:23:44.850Z,72.53
2022-11-22T19:29:16.636Z,73.32
2022-11-22T19:34:47.619Z,73.15
2022-11-22T19:40:18.840Z,72.63
2022-11-22T19:45:50.327Z,73.00
2022-11-22T19:51:22.407Z,73.00
2022-11-22T19:56:53.627Z,72.59
2022-11-22T20:02:24.635Z,72.58
2022-11-22T20:07:55.853Z,72.78
2022-11-22T20:13:26.863Z,73.17
2022-11-22T20:18:59.971Z,72.94
2022-11-22T20:24:31.216Z,72.60
2022-11-22T20:30:02.610Z,72.82
2022-11-22T20:35:33.806Z,73.32
2022-11-22T20:41:06.205Z,72.88
2022-11-22T20:46:37.997Z,73.11
2022-11-22T20:52:10.509Z,72.65
2022-11-22T20:57:41.432Z,72.91
2022-11-22T21:03:12.734Z,73.00
2022-11-22T21:08:45.347Z,72.63
2022-11-22T21:14:16.438Z,72.58
2022-11-22T21:19:47.534Z,73.11
2022-11-22T21:25:18.765Z,73.23
2022-11-22T21:30:58.376Z,73.52
2022-11-22T21:36:29.677Z,72.83
2022-11-22T21:42:00.726Z,73.57
2022-11-22T21:47:32.533Z,73.56
2022-11-22T21:53:03.878Z,73.49
2022-11-22T21:58:34.848Z,73.11
2022-11-22T22:04:05.762Z,73.20
2022-11-22T22:09:36.946Z,73.83
2022-11-22T22:15:10.843Z,73.71
2022-11-22T22:20:41.978Z,73.12
2022-11-22T22:26:16.816Z,73.13
2022-11-22T22:31:48.034Z,73.79
2022-11-22T22:37:19.389Z,73.63
2022-11-22T22:42:50.382Z,73.36
2022-11-22T22:48:22.101Z,74.11
2022-11-22T22:53:53.147Z,73.82
2022-11-22T22:59:24.329Z,73.64
2022-11-22T23:04:55.523Z,73.69
2022-11-22T23:10:26.530Z,74.20
2022-11-22T23:16:03.040Z,73.64
2022-11-22T23:21:34.313Z,74.08
2022-11-22T23:27:05.389Z,73.76
2022-11-22T23:32:36.530Z,74.17
2022-11-22T23:38:07.658Z,73.86
2022-11-22T23:43:39.167Z,73.79
2022-11-22T23:49:10.859Z,73.32
2022-11-22T23:54:41.810Z,73.46
